Crescent Mills, Massachusetts
Current Conditions -  °F | °C
As of 11:00 AM on Monday 22 Dec 2014 (Local Time) from KBAF Reporting Station
Overcast Overcast  
Wind Chill: 31°   Ceiling: 1500
Heat Index: 36°   Visibility: 10mi
Dew Point: 31°   Wind: 6mph
Humidity: 82%   Direction: 340°NNW
Pressure: 30.35"   Gusts: NA
Location:  42.3047°N, 72.879°W
Report Text: KBAF 221600Z 34005KT 10SM BKN015 OVC043 02/M01 A3035 RMK AO2 T00221006
Loading
Personal Weather Stations






























Interactive Weather Map New forecast layout! Learn more

10-Day Weather Forecast

Advertisements
Track Severe Weather on mobile